sensor_id;sensor_type;location;lat;lon;timestamp;pressure;altitude;pressure_sealevel;temperature;humidity
9935;BME280;5006;41.828;23.478;2022-09-09T00:00:48;90755.66;;;17.98;96.43
9935;BME280;5006;41.828;23.478;2022-09-09T00:01:58;90752.47;;;18.19;95.49
9935;BME280;5006;41.828;23.478;2022-09-09T00:03:12;90759.09;;;18.18;93.28
9935;BME280;5006;41.828;23.478;2022-09-09T00:04:26;90746.66;;;18.01;94.07
9935;BME280;5006;41.828;23.478;2022-09-09T00:05:38;90748.66;;;18.17;94.08
9935;BME280;5006;41.828;23.478;2022-09-09T00:06:54;90745.75;;;18.08;93.70
9935;BME280;5006;41.828;23.478;2022-09-09T00:08:02;90749.00;;;18.19;93.49
9935;BME280;5006;41.828;23.478;2022-09-09T00:09:12;90749.34;;;17.85;95.30
9935;BME280;5006;41.828;23.478;2022-09-09T00:10:23;90745.31;;;17.74;96.40
9935;BME280;5006;41.828;23.478;2022-09-09T00:11:35;90743.66;;;17.80;96.55
9935;BME280;5006;41.828;23.478;2022-09-09T00:12:49;90749.41;;;17.82;96.81
9935;BME280;5006;41.828;23.478;2022-09-09T00:13:58;90751.16;;;17.92;96.80
9935;BME280;5006;41.828;23.478;2022-09-09T00:15:12;90751.78;;;17.80;97.98
9935;BME280;5006;41.828;23.478;2022-09-09T00:16:21;90750.47;;;17.88;97.36
9935;BME280;5006;41.828;23.478;2022-09-09T00:17:34;90752.75;;;17.89;96.38
9935;BME280;5006;41.828;23.478;2022-09-09T00:18:50;90740.38;;;17.88;96.74
9935;BME280;5006;41.828;23.478;2022-09-09T00:20:03;90743.91;;;17.85;96.62
9935;BME280;5006;41.828;23.478;2022-09-09T00:21:13;90750.06;;;17.70;98.57
9935;BME280;5006;41.828;23.478;2022-09-09T00:22:21;90739.75;;;17.81;98.59
9935;BME280;5006;41.828;23.478;2022-09-09T00:23:29;90741.06;;;17.73;98.18
9935;BME280;5006;41.828;23.478;2022-09-09T00:24:39;90741.34;;;17.59;99.27
9935;BME280;5006;41.828;23.478;2022-09-09T00:25:51;90736.84;;;17.72;98.73
9935;BME280;5006;41.828;23.478;2022-09-09T00:27:02;90747.81;;;17.84;98.96
9935;BME280;5006;41.828;23.478;2022-09-09T00:28:15;90737.44;;;17.79;98.71
9935;BME280;5006;41.828;23.478;2022-09-09T00:29:28;90740.03;;;17.67;98.28
9935;BME280;5006;41.828;23.478;2022-09-09T00:30:39;90740.72;;;17.71;98.19
9935;BME280;5006;41.828;23.478;2022-09-09T00:31:46;90743.22;;;17.62;98.88
9935;BME280;5006;41.828;23.478;2022-09-09T00:32:53;90740.09;;;17.83;97.82
9935;BME280;5006;41.828;23.478;2022-09-09T00:34:09;90743.94;;;17.66;99.63
9935;BME280;5006;41.828;23.478;2022-09-09T00:35:22;90739.59;;;17.68;98.61
9935;BME280;5006;41.828;23.478;2022-09-09T00:36:31;90744.84;;;17.59;98.92
9935;BME280;5006;41.828;23.478;2022-09-09T00:37:37;90756.03;;;17.81;100.00
9935;BME280;5006;41.828;23.478;2022-09-09T00:38:48;90752.69;;;17.73;99.51
9935;BME280;5006;41.828;23.478;2022-09-09T00:39:59;90756.25;;;17.70;99.03
9935;BME280;5006;41.828;23.478;2022-09-09T00:41:09;90754.16;;;17.78;99.25
9935;BME280;5006;41.828;23.478;2022-09-09T00:42:22;90750.31;;;17.75;98.88
9935;BME280;5006;41.828;23.478;2022-09-09T00:43:29;90752.69;;;17.73;99.94
9935;BME280;5006;41.828;23.478;2022-09-09T00:44:37;90755.81;;;17.52;100.00
9935;BME280;5006;41.828;23.478;2022-09-09T00:46:06;90755.75;;;17.56;100.00
9935;BME280;5006;41.828;23.478;2022-09-09T00:47:27;90756.66;;;17.69;100.00
9935;BME280;5006;41.828;23.478;2022-09-09T00:48:42;90752.00;;;17.69;100.00
9935;BME280;5006;41.828;23.478;2022-09-09T00:50:00;90753.75;;;17.41;100.00
9935;BME280;5006;41.828;23.478;2022-09-09T00:51:10;90752.22;;;17.40;100.00
9935;BME280;5006;41.828;23.478;2022-09-09T00:52:27;90740.81;;;17.48;100.00
9935;BME280;5006;41.828;23.478;2022-09-09T00:53:39;90736.56;;;17.47;100.00
9935;BME280;5006;41.828;23.478;2022-09-09T00:54:54;90738.31;;;17.57;100.00
9935;BME280;5006;41.828;23.478;2022-09-09T00:56:11;90729.97;;;17.48;100.00
9935;BME280;5006;41.828;23.478;2022-09-09T00:57:25;90734.28;;;17.46;100.00
9935;BME280;5006;41.828;23.478;2022-09-09T00:58:31;90730.09;;;17.41;100.00
9935;BME280;5006;41.828;23.478;2022-09-09T00:59:45;90729.47;;;17.53;100.00
9935;BME280;5006;41.828;23.478;2022-09-09T01:02:26;90725.81;;;17.63;100.00
9935;BME280;5006;41.828;23.478;2022-09-09T01:03:34;90734.75;;;17.60;100.00
9935;BME280;5006;41.828;23.478;2022-09-09T01:04:40;90732.47;;;17.58;100.00
9935;BME280;5006;41.828;23.478;2022-09-09T01:05:55;90727.50;;;17.73;100.00
9935;BME280;5006;41.828;23.478;2022-09-09T01:07:07;90732.25;;;17.69;100.00
9935;BME280;5006;41.828;23.478;2022-09-09T01:08:28;90739.38;;;17.63;100.00
9935;BME280;5006;41.828;23.478;2022-09-09T01:09:50;90737.81;;;17.62;100.00
9935;BME280;5006;41.828;23.478;2022-09-09T01:10:56;90744.63;;;17.70;100.00
9935;BME280;5006;41.828;23.478;2022-09-09T01:12:11;90734.97;;;17.69;100.00
9935;BME280;5006;41.828;23.478;2022-09-09T01:13:24;90728.41;;;17.66;100.00
9935;BME280;5006;41.828;23.478;2022-09-09T01:14:38;90730.19;;;17.15;100.00
9935;BME280;5006;41.828;23.478;2022-09-09T01:15:45;90731.38;;;17.33;100.00
9935;BME280;5006;41.828;23.478;2022-09-09T01:16:55;90729.22;;;17.48;100.00
9935;BME280;5006;41.828;23.478;2022-09-09T01:18:04;90735.78;;;17.27;100.00
9935;BME280;5006;41.828;23.478;2022-09-09T01:19:19;90734.25;;;17.26;100.00
9935;BME280;5006;41.828;23.478;2022-09-09T01:20:37;90744.06;;;17.59;100.00
9935;BME280;5006;41.828;23.478;2022-09-09T01:21:48;90736.16;;;17.68;100.00
9935;BME280;5006;41.828;23.478;2022-09-09T01:23:15;90729.31;;;17.60;100.00
9935;BME280;5006;41.828;23.478;2022-09-09T01:24:31;90735.03;;;17.65;100.00
9935;BME280;5006;41.828;23.478;2022-09-09T01:26:18;90727.34;;;17.45;100.00
9935;BME280;5006;41.828;23.478;2022-09-09T01:27:24;90733.66;;;17.57;100.00
9935;BME280;5006;41.828;23.478;2022-09-09T01:28:31;90731.22;;;17.63;100.00
9935;BME280;5006;41.828;23.478;2022-09-09T01:29:43;90728.56;;;17.59;100.00
9935;BME280;5006;41.828;23.478;2022-09-09T01:30:49;90724.00;;;17.56;100.00
9935;BME280;5006;41.828;23.478;2022-09-09T01:31:58;90731.91;;;17.67;100.00
9935;BME280;5006;41.828;23.478;2022-09-09T01:33:04;90730.94;;;17.57;100.00
9935;BME280;5006;41.828;23.478;2022-09-09T01:34:10;90723.63;;;17.54;100.00
9935;BME280;5006;41.828;23.478;2022-09-09T01:35:29;90726.28;;;17.39;100.00
9935;BME280;5006;41.828;23.478;2022-09-09T01:36:43;90730.31;;;17.50;100.00
9935;BME280;5006;41.828;23.478;2022-09-09T01:37:51;90722.72;;;17.42;100.00
9935;BME280;5006;41.828;23.478;2022-09-09T01:38:56;90729.56;;;17.49;100.00
9935;BME280;5006;41.828;23.478;2022-09-09T01:40:03;90729.81;;;17.55;100.00
9935;BME280;5006;41.828;23.478;2022-09-09T01:41:09;90729.75;;;17.58;100.00
9935;BME280;5006;41.828;23.478;2022-09-09T01:42:39;90729.56;;;17.49;100.00
9935;BME280;5006;41.828;23.478;2022-09-09T01:43:45;90718.81;;;17.42;100.00
9935;BME280;5006;41.828;23.478;2022-09-09T01:44:50;90727.31;;;17.64;100.00
9935;BME280;5006;41.828;23.478;2022-09-09T01:45:59;90725.59;;;17.54;100.00
9935;BME280;5006;41.828;23.478;2022-09-09T01:47:05;90727.41;;;17.60;100.00
9935;BME280;5006;41.828;23.478;2022-09-09T01:48:13;90728.13;;;17.80;100.00
9935;BME280;5006;41.828;23.478;2022-09-09T01:49:21;90728.69;;;17.72;100.00
9935;BME280;5006;41.828;23.478;2022-09-09T01:50:28;90723.16;;;17.59;100.00
9935;BME280;5006;41.828;23.478;2022-09-09T01:51:36;90723.78;;;17.67;100.00
9935;BME280;5006;41.828;23.478;2022-09-09T01:52:49;90717.41;;;17.38;100.00
9935;BME280;5006;41.828;23.478;2022-09-09T01:53:57;90722.72;;;17.42;100.00
9935;BME280;5006;41.828;23.478;2022-09-09T01:55:04;90724.78;;;17.34;100.00
9935;BME280;5006;41.828;23.478;2022-09-09T01:56:28;90720.44;;;17.40;100.00
9935;BME280;5006;41.828;23.478;2022-09-09T01:57:42;90726.59;;;17.21;100.00
9935;BME280;5006;41.828;23.478;2022-09-09T01:59:08;90727.31;;;17.25;100.00
9935;BME280;5006;41.828;23.478;2022-09-09T02:00:19;90723.41;;;17.26;100.00
9935;BME280;5006;41.828;23.478;2022-09-09T02:01:34;90728.94;;;17.42;100.00
9935;BME280;5006;41.828;23.478;2022-09-09T02:02:54;90722.66;;;17.45;100.00
9935;BME280;5006;41.828;23.478;2022-09-09T02:05:40;90726.22;;;17.42;100.00
9935;BME280;5006;41.828;23.478;2022-09-09T02:06:56;90729.88;;;17.71;100.00
9935;BME280;5006;41.828;23.478;2022-09-09T02:08:07;90722.25;;;17.66;100.00
9935;BME280;5006;41.828;23.478;2022-09-09T02:09:24;90722.38;;;17.59;100.00
9935;BME280;5006;41.828;23.478;2022-09-09T02:10:34;90716.78;;;17.50;100.00
9935;BME280;5006;41.828;23.478;2022-09-09T02:11:52;90723.25;;;17.72;100.00
9935;BME280;5006;41.828;23.478;2022-09-09T02:13:13;90731.91;;;17.67;100.00
9935;BME280;5006;41.828;23.478;2022-09-09T02:14:23;90723.63;;;17.54;100.00
9935;BME280;5006;41.828;23.478;2022-09-09T02:15:33;90726.22;;;17.61;100.00
9935;BME280;5006;41.828;23.478;2022-09-09T02:16:42;90721.28;;;17.56;100.00
9935;BME280;5006;41.828;23.478;2022-09-09T02:17:52;90719.03;;;17.71;100.00
9935;BME280;5006;41.828;23.478;2022-09-09T02:19:01;90724.25;;;17.62;100.00
9935;BME280;5006;41.828;23.478;2022-09-09T02:20:22;90723.16;;;17.59;100.00
9935;BME280;5006;41.828;23.478;2022-09-09T02:21:36;90718.63;;;17.53;100.00
9935;BME280;5006;41.828;23.478;2022-09-09T02:22:44;90723.91;;;17.60;100.00
9935;BME280;5006;41.828;23.478;2022-09-09T02:23:52;90728.09;;;17.45;100.00
9935;BME280;5006;41.828;23.478;2022-09-09T02:25:00;90723.41;;;17.26;100.00
9935;BME280;5006;41.828;23.478;2022-09-09T02:26:09;90729.34;;;17.18;100.00
9935;BME280;5006;41.828;23.478;2022-09-09T02:27:20;90718.75;;;17.27;100.00
9935;BME280;5006;41.828;23.478;2022-09-09T02:28:29;90715.09;;;17.56;100.00
9935;BME280;5006;41.828;23.478;2022-09-09T02:29:40;90712.06;;;17.70;100.00
9935;BME280;5006;41.828;23.478;2022-09-09T02:30:46;90717.84;;;17.33;100.00
9935;BME280;5006;41.828;23.478;2022-09-09T02:32:02;90718.13;;;17.58;100.00
9935;BME280;5006;41.828;23.478;2022-09-09T02:33:12;90717.81;;;17.37;100.00
9935;BME280;5006;41.828;23.478;2022-09-09T02:34:23;90721.69;;;17.55;100.00
9935;BME280;5006;41.828;23.478;2022-09-09T02:35:31;90719.72;;;17.55;100.00
9935;BME280;5006;41.828;23.478;2022-09-09T02:36:40;90721.63;;;17.58;100.00
9935;BME280;5006;41.828;23.478;2022-09-09T02:37:50;90713.97;;;17.53;100.00
9935;BME280;5006;41.828;23.478;2022-09-09T02:38:57;90718.56;;;17.37;100.00
9935;BME280;5006;41.828;23.478;2022-09-09T02:40:08;90721.16;;;17.02;100.00
9935;BME280;5006;41.828;23.478;2022-09-09T02:41:19;90717.41;;;16.96;100.00
9935;BME280;5006;41.828;23.478;2022-09-09T02:42:27;90711.75;;;16.64;100.00
9935;BME280;5006;41.828;23.478;2022-09-09T02:43:39;90717.66;;;16.82;100.00
9935;BME280;5006;41.828;23.478;2022-09-09T02:44:49;90718.72;;;17.07;100.00
9935;BME280;5006;41.828;23.478;2022-09-09T02:46:01;90715.47;;;17.16;100.00
9935;BME280;5006;41.828;23.478;2022-09-09T02:47:22;90714.66;;;17.19;100.00
9935;BME280;5006;41.828;23.478;2022-09-09T02:48:38;90716.56;;;16.99;100.00
9935;BME280;5006;41.828;23.478;2022-09-09T02:49:58;90717.88;;;17.10;100.00
9935;BME280;5006;41.828;23.478;2022-09-09T02:51:10;90717.19;;;17.06;100.00
9935;BME280;5006;41.828;23.478;2022-09-09T02:52:26;90707.81;;;17.11;100.00
9935;BME280;5006;41.828;23.478;2022-09-09T02:53:39;90706.03;;;16.81;100.00
9935;BME280;5006;41.828;23.478;2022-09-09T02:54:49;90707.16;;;16.84;100.00
9935;BME280;5006;41.828;23.478;2022-09-09T02:56:00;90700.25;;;17.02;100.00
9935;BME280;5006;41.828;23.478;2022-09-09T02:57:14;90699.34;;;17.09;100.00
9935;BME280;5006;41.828;23.478;2022-09-09T02:58:22;90704.84;;;17.25;100.00
9935;BME280;5006;41.828;23.478;2022-09-09T02:59:37;90710.81;;;17.16;100.00
9935;BME280;5006;41.828;23.478;2022-09-09T03:00:43;90701.84;;;17.19;100.00
9935;BME280;5006;41.828;23.478;2022-09-09T03:01:49;90708.06;;;17.39;100.00
9935;BME280;5006;41.828;23.478;2022-09-09T03:02:55;90704.34;;;17.10;100.00
9935;BME280;5006;41.828;23.478;2022-09-09T03:04:02;90703.16;;;17.11;100.00
9935;BME280;5006;41.828;23.478;2022-09-09T03:05:08;90705.59;;;17.06;100.00
9935;BME280;5006;41.828;23.478;2022-09-09T03:06:14;90698.84;;;16.94;100.00
9935;BME280;5006;41.828;23.478;2022-09-09T03:07:20;90700.38;;;16.95;100.00
9935;BME280;5006;41.828;23.478;2022-09-09T03:08:28;90700.56;;;16.85;100.00
9935;BME280;5006;41.828;23.478;2022-09-09T03:09:34;90695.22;;;17.01;100.00
9935;BME280;5006;41.828;23.478;2022-09-09T03:10:40;90695.19;;;17.24;100.00
9935;BME280;5006;41.828;23.478;2022-09-09T03:11:45;90701.38;;;17.24;100.00
9935;BME280;5006;41.828;23.478;2022-09-09T03:12:53;90695.53;;;17.26;100.00
9935;BME280;5006;41.828;23.478;2022-09-09T03:13:58;90704.47;;;17.03;100.00
9935;BME280;5006;41.828;23.478;2022-09-09T03:15:07;90701.56;;;17.14;100.00
9935;BME280;5006;41.828;23.478;2022-09-09T03:16:12;90711.63;;;16.94;100.00
9935;BME280;5006;41.828;23.478;2022-09-09T03:17:22;90705.31;;;17.00;100.00
9935;BME280;5006;41.828;23.478;2022-09-09T03:18:31;90702.88;;;16.86;100.00
9935;BME280;5006;41.828;23.478;2022-09-09T03:19:38;90708.13;;;16.74;100.00
9935;BME280;5006;41.828;23.478;2022-09-09T03:20:46;90711.72;;;16.67;100.00
9935;BME280;5006;41.828;23.478;2022-09-09T03:21:53;90702.88;;;16.86;100.00
9935;BME280;5006;41.828;23.478;2022-09-09T03:22:59;90703.56;;;16.90;100.00
9935;BME280;5006;41.828;23.478;2022-09-09T03:24:06;90707.66;;;16.98;100.00
9935;BME280;5006;41.828;23.478;2022-09-09T03:25:11;90702.41;;;17.11;100.00
9935;BME280;5006;41.828;23.478;2022-09-09T03:26:17;90709.28;;;16.96;100.00
9935;BME280;5006;41.828;23.478;2022-09-09T03:27:24;90711.69;;;16.90;100.00
9935;BME280;5006;41.828;23.478;2022-09-09T03:28:30;90711.09;;;17.02;100.00
9935;BME280;5006;41.828;23.478;2022-09-09T03:29:37;90711.44;;;17.04;100.00
9935;BME280;5006;41.828;23.478;2022-09-09T03:30:47;90713.78;;;17.02;100.00
9935;BME280;5006;41.828;23.478;2022-09-09T03:31:54;90712.31;;;16.98;100.00
9935;BME280;5006;41.828;23.478;2022-09-09T03:32:59;90708.34;;;16.83;100.00
9935;BME280;5006;41.828;23.478;2022-09-09T03:34:09;90712.53;;;16.87;100.00
9935;BME280;5006;41.828;23.478;2022-09-09T03:35:14;90715.53;;;16.93;100.00
9935;BME280;5006;41.828;23.478;2022-09-09T03:36:20;90714.94;;;16.82;100.00
9935;BME280;5006;41.828;23.478;2022-09-09T03:37:26;90719.94;;;16.83;100.00
9935;BME280;5006;41.828;23.478;2022-09-09T03:38:32;90713.00;;;16.82;100.00
9935;BME280;5006;41.828;23.478;2022-09-09T03:39:38;90712.88;;;16.66;100.00
9935;BME280;5006;41.828;23.478;2022-09-09T03:40:49;90702.88;;;16.86;100.00
9935;BME280;5006;41.828;23.478;2022-09-09T03:41:56;90707.81;;;16.91;100.00
9935;BME280;5006;41.828;23.478;2022-09-09T03:43:00;90709.28;;;16.73;100.00
9935;BME280;5006;41.828;23.478;2022-09-09T03:44:06;90706.03;;;16.81;100.00
9935;BME280;5006;41.828;23.478;2022-09-09T03:45:16;90710.63;;;16.84;100.00
9935;BME280;5006;41.828;23.478;2022-09-09T03:46:25;90711.34;;;16.88;100.00
9935;BME280;5006;41.828;23.478;2022-09-09T03:47:31;90703.00;;;16.79;100.00
9935;BME280;5006;41.828;23.478;2022-09-09T03:48:42;90706.03;;;16.81;100.00
9935;BME280;5006;41.828;23.478;2022-09-09T03:49:48;90705.88;;;16.69;100.00
9935;BME280;5006;41.828;23.478;2022-09-09T03:50:53;90698.06;;;16.74;100.00
9935;BME280;5006;41.828;23.478;2022-09-09T03:52:00;90707.13;;;16.64;100.00
9935;BME280;5006;41.828;23.478;2022-09-09T03:53:05;90702.53;;;16.61;100.00
9935;BME280;5006;41.828;23.478;2022-09-09T03:54:12;90703.31;;;16.12;100.00
9935;BME280;5006;41.828;23.478;2022-09-09T03:55:17;90702.44;;;16.19;100.00
9935;BME280;5006;41.828;23.478;2022-09-09T03:56:23;90709.00;;;16.44;100.00
9935;BME280;5006;41.828;23.478;2022-09-09T03:57:28;90706.94;;;16.52;100.00
9935;BME280;5006;41.828;23.478;2022-09-09T03:58:34;90701.84;;;17.00;100.00
9935;BME280;5006;41.828;23.478;2022-09-09T03:59:44;90710.75;;;17.00;100.00
9935;BME280;5006;41.828;23.478;2022-09-09T04:00:54;90710.84;;;16.93;100.00
9935;BME280;5006;41.828;23.478;2022-09-09T04:02:00;90711.34;;;16.88;100.00
9935;BME280;5006;41.828;23.478;2022-09-09T04:03:06;90716.00;;;16.88;100.00
9935;BME280;5006;41.828;23.478;2022-09-09T04:04:11;90717.81;;;16.71;100.00
9935;BME280;5006;41.828;23.478;2022-09-09T04:05:17;90716.94;;;16.78;100.00
9935;BME280;5006;41.828;23.478;2022-09-09T04:06:24;90719.09;;;16.44;100.00
9935;BME280;5006;41.828;23.478;2022-09-09T04:07:31;90717.47;;;16.92;100.00
9935;BME280;5006;41.828;23.478;2022-09-09T04:08:36;90722.00;;;17.18;100.00
9935;BME280;5006;41.828;23.478;2022-09-09T04:09:42;90722.06;;;17.15;100.00
9935;BME280;5006;41.828;23.478;2022-09-09T04:10:49;90724.03;;;17.14;100.00
9935;BME280;5006;41.828;23.478;2022-09-09T04:11:56;90722.41;;;17.17;100.00
9935;BME280;5006;41.828;23.478;2022-09-09T04:13:01;90724.19;;;17.04;100.00
9935;BME280;5006;41.828;23.478;2022-09-09T04:14:06;90723.00;;;16.85;100.00
9935;BME280;5006;41.828;23.478;2022-09-09T04:15:13;90720.50;;;16.94;100.00
9935;BME280;5006;41.828;23.478;2022-09-09T04:16:18;90719.75;;;16.94;100.00
9935;BME280;5006;41.828;23.478;2022-09-09T04:17:26;90714.78;;;17.12;100.00
9935;BME280;5006;41.828;23.478;2022-09-09T04:18:31;90716.75;;;16.88;100.00
9935;BME280;5006;41.828;23.478;2022-09-09T04:19:38;90715.53;;;16.93;100.00
9935;BME280;5006;41.828;23.478;2022-09-09T04:20:46;90709.84;;;17.07;100.00
9935;BME280;5006;41.828;23.478;2022-09-09T04:21:52;90703.53;;;17.13;100.00
9935;BME280;5006;41.828;23.478;2022-09-09T04:22:59;90707.63;;;17.21;100.00
9935;BME280;5006;41.828;23.478;2022-09-09T04:24:05;90700.75;;;17.36;100.00
9935;BME280;5006;41.828;23.478;2022-09-09T04:25:10;90700.09;;;17.09;100.00
9935;BME280;5006;41.828;23.478;2022-09-09T04:26:16;90701.50;;;16.98;100.00
9935;BME280;5006;41.828;23.478;2022-09-09T04:27:23;90698.78;;;16.98;100.00
9935;BME280;5006;41.828;23.478;2022-09-09T04:28:30;90706.16;;;17.17;100.00
9935;BME280;5006;41.828;23.478;2022-09-09T04:29:36;90698.84;;;17.33;100.00
9935;BME280;5006;41.828;23.478;2022-09-09T04:30:44;90707.56;;;17.44;100.00
9935;BME280;5006;41.828;23.478;2022-09-09T04:31:50;90710.00;;;17.39;100.00
9935;BME280;5006;41.828;23.478;2022-09-09T04:32:56;90712.34;;;17.17;100.00
9935;BME280;5006;41.828;23.478;2022-09-09T04:34:01;90708.63;;;17.50;100.00
9935;BME280;5006;41.828;23.478;2022-09-09T04:35:09;90717.16;;;17.68;100.00
9935;BME280;5006;41.828;23.478;2022-09-09T04:36:15;90711.78;;;17.84;100.00
9935;BME280;5006;41.828;23.478;2022-09-09T04:37:21;90715.09;;;17.91;100.00
9935;BME280;5006;41.828;23.478;2022-09-09T04:38:26;90715.97;;;17.69;100.00
9935;BME280;5006;41.828;23.478;2022-09-09T04:39:33;90716.88;;;17.62;100.00
9935;BME280;5006;41.828;23.478;2022-09-09T04:40:38;90722.72;;;17.61;100.00
9935;BME280;5006;41.828;23.478;2022-09-09T04:41:46;90723.50;;;17.61;100.00
9935;BME280;5006;41.828;23.478;2022-09-09T04:42:53;90720.34;;;17.82;100.00
9935;BME280;5006;41.828;23.478;2022-09-09T04:43:57;90731.59;;;17.81;100.00
9935;BME280;5006;41.828;23.478;2022-09-09T04:45:06;90727.59;;;18.05;100.00
9935;BME280;5006;41.828;23.478;2022-09-09T04:46:11;90725.16;;;18.10;100.00
9935;BME280;5006;41.828;23.478;2022-09-09T04:47:17;90721.38;;;17.88;100.00
9935;BME280;5006;41.828;23.478;2022-09-09T04:48:24;90721.28;;;17.92;100.00
9935;BME280;5006;41.828;23.478;2022-09-09T04:49:30;90722.91;;;18.05;100.00
9935;BME280;5006;41.828;23.478;2022-09-09T04:50:36;90724.63;;;17.99;100.00
9935;BME280;5006;41.828;23.478;2022-09-09T04:51:42;90721.94;;;18.15;100.00
9935;BME280;5006;41.828;23.478;2022-09-09T04:52:51;90717.69;;;18.14;100.00
9935;BME280;5006;41.828;23.478;2022-09-09T04:53:55;90722.44;;;18.26;100.00
9935;BME280;5006;41.828;23.478;2022-09-09T04:55:02;90719.78;;;18.42;100.00
9935;BME280;5006;41.828;23.478;2022-09-09T04:56:09;90721.81;;;18.54;100.00
9935;BME280;5006;41.828;23.478;2022-09-09T04:57:20;90727.84;;;18.62;100.00
9935;BME280;5006;41.828;23.478;2022-09-09T04:58:25;90712.25;;;18.66;100.00
9935;BME280;5006;41.828;23.478;2022-09-09T04:59:31;90712.13;;;18.69;100.00
9935;BME280;5006;41.828;23.478;2022-09-09T05:00:38;90706.03;;;18.65;100.00
9935;BME280;5006;41.828;23.478;2022-09-09T05:01:45;90703.75;;;18.48;100.00
9935;BME280;5006;41.828;23.478;2022-09-09T05:02:50;90703.22;;;18.69;100.00
9935;BME280;5006;41.828;23.478;2022-09-09T05:03:58;90703.81;;;18.76;100.00
9935;BME280;5006;41.828;23.478;2022-09-09T05:05:04;90697.41;;;18.99;100.00
9935;BME280;5006;41.828;23.478;2022-09-09T05:06:11;90706.84;;;18.94;100.00
9935;BME280;5006;41.828;23.478;2022-09-09T05:07:17;90705.75;;;18.76;100.00
9935;BME280;5006;41.828;23.478;2022-09-09T05:08:23;90706.44;;;18.64;100.00
9935;BME280;5006;41.828;23.478;2022-09-09T05:09:29;90710.94;;;18.70;100.00
9935;BME280;5006;41.828;23.478;2022-09-09T05:10:38;90707.81;;;18.56;100.00
9935;BME280;5006;41.828;23.478;2022-09-09T05:11:43;90717.66;;;18.82;100.00
9935;BME280;5006;41.828;23.478;2022-09-09T05:13:02;90719.44;;;18.72;100.00
9935;BME280;5006;41.828;23.478;2022-09-09T05:14:09;90723.41;;;18.84;100.00
9935;BME280;5006;41.828;23.478;2022-09-09T05:15:16;90721.22;;;18.95;100.00
9935;BME280;5006;41.828;23.478;2022-09-09T05:16:21;90725.75;;;19.14;100.00
9935;BME280;5006;41.828;23.478;2022-09-09T05:17:27;90722.25;;;19.29;100.00
9935;BME280;5006;41.828;23.478;2022-09-09T05:18:33;90731.31;;;19.39;100.00
9935;BME280;5006;41.828;23.478;2022-09-09T05:19:40;90734.38;;;19.41;100.00
9935;BME280;5006;41.828;23.478;2022-09-09T05:20:45;90735.94;;;19.26;100.00
9935;BME280;5006;41.828;23.478;2022-09-09T05:21:51;90729.47;;;19.36;100.00
9935;BME280;5006;41.828;23.478;2022-09-09T05:23:01;90727.53;;;19.77;100.00
9935;BME280;5006;41.828;23.478;2022-09-09T05:24:08;90727.47;;;19.93;100.00
9935;BME280;5006;41.828;23.478;2022-09-09T05:25:16;90730.22;;;19.65;100.00
9935;BME280;5006;41.828;23.478;2022-09-09T05:26:22;90730.28;;;19.49;100.00
9935;BME280;5006;41.828;23.478;2022-09-09T05:27:30;90733.53;;;19.44;100.00
9935;BME280;5006;41.828;23.478;2022-09-09T05:28:36;90736.06;;;19.51;100.00
9935;BME280;5006;41.828;23.478;2022-09-09T05:29:42;90732.41;;;19.29;100.00
9935;BME280;5006;41.828;23.478;2022-09-09T05:30:55;90733.41;;;19.03;100.00
9935;BME280;5006;41.828;23.478;2022-09-09T05:32:02;90736.75;;;19.10;100.00
9935;BME280;5006;41.828;23.478;2022-09-09T05:33:07;90729.31;;;19.11;100.00
9935;BME280;5006;41.828;23.478;2022-09-09T05:34:13;90729.84;;;19.06;100.00
9935;BME280;5006;41.828;23.478;2022-09-09T05:35:20;90722.53;;;19.47;100.00
9935;BME280;5006;41.828;23.478;2022-09-09T05:36:27;90715.13;;;19.76;100.00
9935;BME280;5006;41.828;23.478;2022-09-09T05:37:34;90712.25;;;20.08;100.00
9935;BME280;5006;41.828;23.478;2022-09-09T05:38:41;90707.44;;;19.87;100.00
9935;BME280;5006;41.828;23.478;2022-09-09T05:39:45;90709.16;;;19.81;100.00
9935;BME280;5006;41.828;23.478;2022-09-09T05:40:52;90701.47;;;19.64;100.00
9935;BME280;5006;41.828;23.478;2022-09-09T05:41:57;90689.94;;;19.60;100.00
9935;BME280;5006;41.828;23.478;2022-09-09T05:43:03;90694.19;;;19.61;100.00
9935;BME280;5006;41.828;23.478;2022-09-09T05:44:07;90686.28;;;19.78;100.00
9935;BME280;5006;41.828;23.478;2022-09-09T05:45:16;90686.84;;;19.98;100.00
9935;BME280;5006;41.828;23.478;2022-09-09T05:46:22;90690.06;;;20.09;100.00
9935;BME280;5006;41.828;23.478;2022-09-09T05:47:30;90683.06;;;20.21;100.00
9935;BME280;5006;41.828;23.478;2022-09-09T05:48:36;90690.75;;;19.85;100.00
9935;BME280;5006;41.828;23.478;2022-09-09T05:49:42;90689.25;;;19.96;100.00
9935;BME280;5006;41.828;23.478;2022-09-09T05:50:55;90683.34;;;19.85;100.00
9935;BME280;5006;41.828;23.478;2022-09-09T05:52:01;90689.53;;;19.73;100.00
9935;BME280;5006;41.828;23.478;2022-09-09T05:53:08;90679.75;;;19.88;100.00
9935;BME280;5006;41.828;23.478;2022-09-09T05:54:13;90701.69;;;19.28;100.00
9935;BME280;5006;41.828;23.478;2022-09-09T05:55:23;90703.66;;;19.28;100.00
9935;BME280;5006;41.828;23.478;2022-09-09T05:56:30;90700.72;;;19.22;100.00
9935;BME280;5006;41.828;23.478;2022-09-09T05:57:37;90701.63;;;19.73;100.00
9935;BME280;5006;41.828;23.478;2022-09-09T05:58:44;90705.72;;;19.65;100.00
9935;BME280;5006;41.828;23.478;2022-09-09T05:59:51;90707.34;;;19.05;100.00
9935;BME280;5006;41.828;23.478;2022-09-09T06:01:06;90711.00;;;18.99;100.00
9935;BME280;5006;41.828;23.478;2022-09-09T06:02:13;90713.69;;;19.15;100.00
9935;BME280;5006;41.828;23.478;2022-09-09T06:03:18;90714.25;;;18.94;100.00
9935;BME280;5006;41.828;23.478;2022-09-09T06:04:29;90715.34;;;19.41;100.00
9935;BME280;5006;41.828;23.478;2022-09-09T06:05:37;90713.06;;;19.39;100.00
9935;BME280;5006;41.828;23.478;2022-09-09T06:06:43;90722.09;;;19.77;100.00
9935;BME280;5006;41.828;23.478;2022-09-09T06:07:53;90720.06;;;19.53;100.00
9935;BME280;5006;41.828;23.478;2022-09-09T06:08:58;90714.84;;;19.99;100.00
9935;BME280;5006;41.828;23.478;2022-09-09T06:10:09;90716.41;;;20.12;100.00
9935;BME280;5006;41.828;23.478;2022-09-09T06:11:16;90721.81;;;20.00;100.00